sensor_id;sensor_type;location;lat;lon;timestamp;temperature;humidity
16674;DHT22;8450;52.654;10.326;2023-05-07T05:18:46;8.90;99.90
16674;DHT22;8450;52.654;10.326;2023-05-07T05:21:15;8.80;99.90
16674;DHT22;8450;52.654;10.326;2023-05-07T05:23:42;8.80;99.90
16674;DHT22;8450;52.654;10.326;2023-05-07T05:26:08;8.80;99.90
16674;DHT22;8450;52.654;10.326;2023-05-07T05:28:33;8.90;99.90
16674;DHT22;8450;52.654;10.326;2023-05-07T05:30:59;8.90;99.90
16674;DHT22;8450;52.654;10.326;2023-05-07T05:33:27;8.90;99.90
16674;DHT22;8450;52.654;10.326;2023-05-07T05:35:54;8.90;99.90
16674;DHT22;8450;52.654;10.326;2023-05-07T05:38:19;8.90;99.90
16674;DHT22;8450;52.654;10.326;2023-05-07T05:40:47;8.90;99.90
16674;DHT22;8450;52.654;10.326;2023-05-07T05:43:14;8.90;99.90
16674;DHT22;8450;52.654;10.326;2023-05-07T05:45:39;8.90;99.90
16674;DHT22;8450;52.654;10.326;2023-05-07T05:48:06;9.00;99.90
16674;DHT22;8450;52.654;10.326;2023-05-07T05:50:32;9.00;99.90
16674;DHT22;8450;52.654;10.326;2023-05-07T05:52:58;9.00;99.90
16674;DHT22;8450;52.654;10.326;2023-05-07T05:55:26;9.00;99.90
16674;DHT22;8450;52.654;10.326;2023-05-07T05:57:52;9.00;99.90
16674;DHT22;8450;52.654;10.326;2023-05-07T06:00:18;9.00;99.90
16674;DHT22;8450;52.654;10.326;2023-05-07T06:02:54;9.00;99.90
16674;DHT22;8450;52.654;10.326;2023-05-07T06:05:24;9.00;99.90
16674;DHT22;8450;52.654;10.326;2023-05-07T06:07:52;9.10;99.90
16674;DHT22;8450;52.654;10.326;2023-05-07T06:10:18;9.10;99.90
16674;DHT22;8450;52.654;10.326;2023-05-07T06:12:44;9.10;99.90
16674;DHT22;8450;52.654;10.326;2023-05-07T06:15:10;9.10;99.90
16674;DHT22;8450;52.654;10.326;2023-05-07T06:17:36;9.10;99.90
16674;DHT22;8450;52.654;10.326;2023-05-07T06:20:02;9.10;99.90
16674;DHT22;8450;52.654;10.326;2023-05-07T06:22:27;9.10;99.90
16674;DHT22;8450;52.654;10.326;2023-05-07T06:24:54;9.10;99.90
16674;DHT22;8450;52.654;10.326;2023-05-07T06:27:20;9.20;99.90
16674;DHT22;8450;52.654;10.326;2023-05-07T06:29:48;9.20;99.90
16674;DHT22;8450;52.654;10.326;2023-05-07T06:32:15;9.20;99.90
16674;DHT22;8450;52.654;10.326;2023-05-07T06:34:43;9.20;99.90
16674;DHT22;8450;52.654;10.326;2023-05-07T06:37:09;9.20;99.90
16674;DHT22;8450;52.654;10.326;2023-05-07T06:40:07;9.20;99.90
16674;DHT22;8450;52.654;10.326;2023-05-07T06:42:36;9.20;99.90
16674;DHT22;8450;52.654;10.326;2023-05-07T06:45:20;9.20;99.90
16674;DHT22;8450;52.654;10.326;2023-05-07T06:47:46;9.20;99.90
16674;DHT22;8450;52.654;10.326;2023-05-07T06:50:12;9.20;99.90
16674;DHT22;8450;52.654;10.326;2023-05-07T06:52:38;9.20;99.90
16674;DHT22;8450;52.654;10.326;2023-05-07T06:55:05;9.30;99.90
16674;DHT22;8450;52.654;10.326;2023-05-07T06:57:31;9.30;99.90
16674;DHT22;8450;52.654;10.326;2023-05-07T06:59:57;9.30;99.90
16674;DHT22;8450;52.654;10.326;2023-05-07T07:02:23;9.30;99.90
16674;DHT22;8450;52.654;10.326;2023-05-07T07:04:49;9.30;99.90
16674;DHT22;8450;52.654;10.326;2023-05-07T07:07:15;9.30;99.90
16674;DHT22;8450;52.654;10.326;2023-05-07T07:09:43;9.40;99.90
16674;DHT22;8450;52.654;10.326;2023-05-07T07:12:09;9.40;99.90
16674;DHT22;8450;52.654;10.326;2023-05-07T07:14:37;9.40;99.90
16674;DHT22;8450;52.654;10.326;2023-05-07T07:17:03;9.40;99.90
16674;DHT22;8450;52.654;10.326;2023-05-07T07:19:30;9.40;99.90
16674;DHT22;8450;52.654;10.326;2023-05-07T07:21:57;9.40;99.90
16674;DHT22;8450;52.654;10.326;2023-05-07T07:24:22;9.40;99.90
16674;DHT22;8450;52.654;10.326;2023-05-07T07:26:53;9.50;99.90
16674;DHT22;8450;52.654;10.326;2023-05-07T07:29:20;9.50;99.90
16674;DHT22;8450;52.654;10.326;2023-05-07T07:31:48;9.50;99.90
16674;DHT22;8450;52.654;10.326;2023-05-07T07:34:14;9.50;99.90
16674;DHT22;8450;52.654;10.326;2023-05-07T07:36:39;9.60;99.90
16674;DHT22;8450;52.654;10.326;2023-05-07T07:39:05;9.60;99.90
16674;DHT22;8450;52.654;10.326;2023-05-07T07:41:32;9.60;99.90
16674;DHT22;8450;52.654;10.326;2023-05-07T07:43:57;9.60;99.90
16674;DHT22;8450;52.654;10.326;2023-05-07T07:46:23;9.70;99.90
16674;DHT22;8450;52.654;10.326;2023-05-07T07:48:48;9.70;99.90
16674;DHT22;8450;52.654;10.326;2023-05-07T07:51:14;9.80;99.90
16674;DHT22;8450;52.654;10.326;2023-05-07T07:53:40;9.80;99.90
16674;DHT22;8450;52.654;10.326;2023-05-07T07:56:06;9.80;99.90
16674;DHT22;8450;52.654;10.326;2023-05-07T07:58:33;9.90;99.90
16674;DHT22;8450;52.654;10.326;2023-05-07T08:01:01;9.90;99.90
16674;DHT22;8450;52.654;10.326;2023-05-07T08:03:26;9.90;99.90
16674;DHT22;8450;52.654;10.326;2023-05-07T08:05:57;10.00;99.90
16674;DHT22;8450;52.654;10.326;2023-05-07T08:08:23;10.00;99.90
16674;DHT22;8450;52.654;10.326;2023-05-07T08:10:49;10.10;99.90
16674;DHT22;8450;52.654;10.326;2023-05-07T08:13:22;10.10;99.90
16674;DHT22;8450;52.654;10.326;2023-05-07T08:15:47;10.10;99.90
16674;DHT22;8450;52.654;10.326;2023-05-07T08:18:13;10.20;99.90
16674;DHT22;8450;52.654;10.326;2023-05-07T08:20:39;10.20;99.90
16674;DHT22;8450;52.654;10.326;2023-05-07T08:23:07;10.30;99.90
16674;DHT22;8450;52.654;10.326;2023-05-07T08:25:33;10.30;99.90
16674;DHT22;8450;52.654;10.326;2023-05-07T08:28:00;10.30;99.90
16674;DHT22;8450;52.654;10.326;2023-05-07T08:30:26;10.40;99.90
16674;DHT22;8450;52.654;10.326;2023-05-07T08:32:52;10.40;99.90
16674;DHT22;8450;52.654;10.326;2023-05-07T08:35:18;10.40;99.90
16674;DHT22;8450;52.654;10.326;2023-05-07T08:37:43;10.50;99.90
16674;DHT22;8450;52.654;10.326;2023-05-07T08:40:10;10.50;99.90
16674;DHT22;8450;52.654;10.326;2023-05-07T08:42:36;10.50;99.90
16674;DHT22;8450;52.654;10.326;2023-05-07T08:45:04;10.60;99.90
16674;DHT22;8450;52.654;10.326;2023-05-07T08:47:40;10.60;99.90
16674;DHT22;8450;52.654;10.326;2023-05-07T08:50:08;10.60;99.90
16674;DHT22;8450;52.654;10.326;2023-05-07T08:52:35;10.70;99.90
16674;DHT22;8450;52.654;10.326;2023-05-07T08:55:02;10.70;99.90
16674;DHT22;8450;52.654;10.326;2023-05-07T08:57:28;10.70;99.90
16674;DHT22;8450;52.654;10.326;2023-05-07T08:59:53;10.80;99.90
16674;DHT22;8450;52.654;10.326;2023-05-07T09:02:19;10.80;99.90
16674;DHT22;8450;52.654;10.326;2023-05-07T09:04:45;10.80;99.90
16674;DHT22;8450;52.654;10.326;2023-05-07T09:07:11;10.90;99.90
16674;DHT22;8450;52.654;10.326;2023-05-07T09:09:40;10.90;99.90
16674;DHT22;8450;52.654;10.326;2023-05-07T09:12:07;10.90;99.90
16674;DHT22;8450;52.654;10.326;2023-05-07T09:14:34;10.90;99.90
16674;DHT22;8450;52.654;10.326;2023-05-07T09:17:01;11.00;99.90
16674;DHT22;8450;52.654;10.326;2023-05-07T09:19:27;11.00;99.90
16674;DHT22;8450;52.654;10.326;2023-05-07T09:21:58;11.10;99.90
16674;DHT22;8450;52.654;10.326;2023-05-07T09:24:25;11.10;99.90
16674;DHT22;8450;52.654;10.326;2023-05-07T09:26:51;11.20;99.90
16674;DHT22;8450;52.654;10.326;2023-05-07T09:29:16;11.30;99.90
16674;DHT22;8450;52.654;10.326;2023-05-07T09:31:43;11.30;99.90
16674;DHT22;8450;52.654;10.326;2023-05-07T09:34:12;11.40;99.90
16674;DHT22;8450;52.654;10.326;2023-05-07T09:36:40;11.50;99.90
16674;DHT22;8450;52.654;10.326;2023-05-07T09:39:06;11.50;99.90
16674;DHT22;8450;52.654;10.326;2023-05-07T09:41:32;11.60;99.90
16674;DHT22;8450;52.654;10.326;2023-05-07T09:44:06;11.70;99.90
16674;DHT22;8450;52.654;10.326;2023-05-07T09:46:38;11.80;99.90
16674;DHT22;8450;52.654;10.326;2023-05-07T09:49:20;11.90;99.90
16674;DHT22;8450;52.654;10.326;2023-05-07T09:51:51;12.00;99.90
16674;DHT22;8450;52.654;10.326;2023-05-07T09:54:19;12.10;99.90
16674;DHT22;8450;52.654;10.326;2023-05-07T09:56:48;12.10;99.90
16674;DHT22;8450;52.654;10.326;2023-05-07T09:59:16;12.20;99.90
16674;DHT22;8450;52.654;10.326;2023-05-07T10:01:44;12.30;99.90
16674;DHT22;8450;52.654;10.326;2023-05-07T10:04:10;12.40;99.90
16674;DHT22;8450;52.654;10.326;2023-05-07T10:06:37;12.50;99.90
16674;DHT22;8450;52.654;10.326;2023-05-07T10:09:04;12.60;99.90
16674;DHT22;8450;52.654;10.326;2023-05-07T10:11:34;12.60;99.90
16674;DHT22;8450;52.654;10.326;2023-05-07T10:14:04;12.70;99.90
16674;DHT22;8450;52.654;10.326;2023-05-07T10:16:35;12.70;99.90
16674;DHT22;8450;52.654;10.326;2023-05-07T10:19:04;12.80;99.90
16674;DHT22;8450;52.654;10.326;2023-05-07T10:21:30;12.80;99.90
16674;DHT22;8450;52.654;10.326;2023-05-07T10:24:04;12.90;99.90
16674;DHT22;8450;52.654;10.326;2023-05-07T10:26:36;12.90;99.90
16674;DHT22;8450;52.654;10.326;2023-05-07T10:29:18;13.00;99.90
16674;DHT22;8450;52.654;10.326;2023-05-07T10:32:09;13.00;99.90
16674;DHT22;8450;52.654;10.326;2023-05-07T10:34:41;13.10;99.90
16674;DHT22;8450;52.654;10.326;2023-05-07T10:37:09;13.10;99.90
16674;DHT22;8450;52.654;10.326;2023-05-07T10:39:35;13.10;99.90
16674;DHT22;8450;52.654;10.326;2023-05-07T10:42:13;13.20;99.90
16674;DHT22;8450;52.654;10.326;2023-05-07T10:44:44;13.20;99.90
16674;DHT22;8450;52.654;10.326;2023-05-07T10:47:16;13.20;99.90
16674;DHT22;8450;52.654;10.326;2023-05-07T10:52:21;13.20;99.90
16674;DHT22;8450;52.654;10.326;2023-05-07T10:58:23;13.30;99.90
16674;DHT22;8450;52.654;10.326;2023-05-07T11:00:58;13.30;99.90
16674;DHT22;8450;52.654;10.326;2023-05-07T11:03:29;13.30;99.90
16674;DHT22;8450;52.654;10.326;2023-05-07T11:06:13;13.30;99.90
16674;DHT22;8450;52.654;10.326;2023-05-07T11:08:53;13.40;99.90
16674;DHT22;8450;52.654;10.326;2023-05-07T11:11:43;13.40;99.90
16674;DHT22;8450;52.654;10.326;2023-05-07T11:14:14;13.40;99.90
16674;DHT22;8450;52.654;10.326;2023-05-07T11:17:06;13.40;99.90
16674;DHT22;8450;52.654;10.326;2023-05-07T11:22:36;13.50;99.90
16674;DHT22;8450;52.654;10.326;2023-05-07T11:25:10;13.50;99.90
16674;DHT22;8450;52.654;10.326;2023-05-07T11:27:43;13.50;99.90
16674;DHT22;8450;52.654;10.326;2023-05-07T11:30:09;13.50;99.90
16674;DHT22;8450;52.654;10.326;2023-05-07T11:32:35;13.50;99.90
16674;DHT22;8450;52.654;10.326;2023-05-07T11:35:00;13.50;99.90
16674;DHT22;8450;52.654;10.326;2023-05-07T11:37:27;13.50;99.90
16674;DHT22;8450;52.654;10.326;2023-05-07T11:40:03;13.50;99.90
16674;DHT22;8450;52.654;10.326;2023-05-07T11:42:34;13.50;99.90
16674;DHT22;8450;52.654;10.326;2023-05-07T11:45:00;13.50;99.90
16674;DHT22;8450;52.654;10.326;2023-05-07T11:47:26;13.60;99.90
16674;DHT22;8450;52.654;10.326;2023-05-07T11:49:55;13.60;99.90
16674;DHT22;8450;52.654;10.326;2023-05-07T11:52:22;13.60;99.90
16674;DHT22;8450;52.654;10.326;2023-05-07T11:54:58;13.70;99.90
16674;DHT22;8450;52.654;10.326;2023-05-07T11:57:25;13.70;99.90
16674;DHT22;8450;52.654;10.326;2023-05-07T11:59:58;13.70;99.90
16674;DHT22;8450;52.654;10.326;2023-05-07T12:02:24;13.80;99.90
16674;DHT22;8450;52.654;10.326;2023-05-07T12:04:51;13.80;99.90
16674;DHT22;8450;52.654;10.326;2023-05-07T12:07:17;13.90;99.90
16674;DHT22;8450;52.654;10.326;2023-05-07T12:09:44;13.90;99.90
16674;DHT22;8450;52.654;10.326;2023-05-07T12:12:10;13.90;99.90
16674;DHT22;8450;52.654;10.326;2023-05-07T12:14:39;14.00;99.90
16674;DHT22;8450;52.654;10.326;2023-05-07T12:17:09;14.00;99.90
16674;DHT22;8450;52.654;10.326;2023-05-07T12:19:36;14.10;99.90
16674;DHT22;8450;52.654;10.326;2023-05-07T12:22:07;14.20;99.90
16674;DHT22;8450;52.654;10.326;2023-05-07T12:24:49;14.30;99.90
16674;DHT22;8450;52.654;10.326;2023-05-07T12:27:16;14.40;99.90
16674;DHT22;8450;52.654;10.326;2023-05-07T12:29:46;14.60;99.90
16674;DHT22;8450;52.654;10.326;2023-05-07T12:32:16;14.70;99.90
16674;DHT22;8450;52.654;10.326;2023-05-07T12:34:42;14.90;99.90
16674;DHT22;8450;52.654;10.326;2023-05-07T12:37:08;15.00;99.90
16674;DHT22;8450;52.654;10.326;2023-05-07T12:39:33;15.20;99.90
16674;DHT22;8450;52.654;10.326;2023-05-07T12:41:59;15.40;99.90
16674;DHT22;8450;52.654;10.326;2023-05-07T12:44:29;15.60;99.90
16674;DHT22;8450;52.654;10.326;2023-05-07T12:46:55;15.80;99.90
16674;DHT22;8450;52.654;10.326;2023-05-07T12:49:21;16.00;99.90
16674;DHT22;8450;52.654;10.326;2023-05-07T12:51:47;16.20;99.90
16674;DHT22;8450;52.654;10.326;2023-05-07T12:54:13;16.40;99.90
16674;DHT22;8450;52.654;10.326;2023-05-07T12:56:39;16.50;99.90
16674;DHT22;8450;52.654;10.326;2023-05-07T12:59:05;16.60;99.90
16674;DHT22;8450;52.654;10.326;2023-05-07T13:01:31;16.70;99.90
16674;DHT22;8450;52.654;10.326;2023-05-07T13:04:02;16.80;99.90
16674;DHT22;8450;52.654;10.326;2023-05-07T13:06:28;17.00;99.90
16674;DHT22;8450;52.654;10.326;2023-05-07T13:08:53;17.10;99.90
16674;DHT22;8450;52.654;10.326;2023-05-07T13:11:19;17.20;99.90
16674;DHT22;8450;52.654;10.326;2023-05-07T13:13:44;17.30;99.90
16674;DHT22;8450;52.654;10.326;2023-05-07T13:16:10;17.40;99.90
16674;DHT22;8450;52.654;10.326;2023-05-07T13:18:38;17.50;99.90
16674;DHT22;8450;52.654;10.326;2023-05-07T13:21:04;17.50;99.90
16674;DHT22;8450;52.654;10.326;2023-05-07T13:23:30;17.50;99.90
16674;DHT22;8450;52.654;10.326;2023-05-07T13:25:56;17.60;99.90
16674;DHT22;8450;52.654;10.326;2023-05-07T13:28:25;17.60;99.90
16674;DHT22;8450;52.654;10.326;2023-05-07T13:30:52;17.60;99.90
16674;DHT22;8450;52.654;10.326;2023-05-07T13:33:18;17.60;99.90
16674;DHT22;8450;52.654;10.326;2023-05-07T13:35:44;17.60;99.90
16674;DHT22;8450;52.654;10.326;2023-05-07T13:38:09;17.60;99.90
16674;DHT22;8450;52.654;10.326;2023-05-07T13:40:35;17.60;99.90
16674;DHT22;8450;52.654;10.326;2023-05-07T13:43:00;17.60;99.90
16674;DHT22;8450;52.654;10.326;2023-05-07T13:45:29;17.60;99.90
16674;DHT22;8450;52.654;10.326;2023-05-07T13:47:55;17.60;99.90
16674;DHT22;8450;52.654;10.326;2023-05-07T13:50:21;17.60;99.90
16674;DHT22;8450;52.654;10.326;2023-05-07T13:52:47;17.60;99.90
16674;DHT22;8450;52.654;10.326;2023-05-07T13:55:23;17.70;99.90
16674;DHT22;8450;52.654;10.326;2023-05-07T13:57:57;17.80;99.90
16674;DHT22;8450;52.654;10.326;2023-05-07T14:00:27;17.90;99.90
16674;DHT22;8450;52.654;10.326;2023-05-07T14:02:53;18.00;99.90
16674;DHT22;8450;52.654;10.326;2023-05-07T14:05:19;18.10;99.90
16674;DHT22;8450;52.654;10.326;2023-05-07T14:07:45;18.20;99.90
16674;DHT22;8450;52.654;10.326;2023-05-07T14:10:12;18.40;99.90
16674;DHT22;8450;52.654;10.326;2023-05-07T14:12:38;18.40;99.90
16674;DHT22;8450;52.654;10.326;2023-05-07T14:15:04;18.50;99.90
16674;DHT22;8450;52.654;10.326;2023-05-07T14:17:29;18.50;99.90
16674;DHT22;8450;52.654;10.326;2023-05-07T14:19:55;18.50;99.90
16674;DHT22;8450;52.654;10.326;2023-05-07T14:22:22;18.60;99.90
16674;DHT22;8450;52.654;10.326;2023-05-07T14:24:48;18.60;99.90
16674;DHT22;8450;52.654;10.326;2023-05-07T14:27:14;18.60;99.90
16674;DHT22;8450;52.654;10.326;2023-05-07T14:29:39;18.70;99.90
16674;DHT22;8450;52.654;10.326;2023-05-07T14:32:05;18.60;99.90
16674;DHT22;8450;52.654;10.326;2023-05-07T14:34:31;18.70;99.90
16674;DHT22;8450;52.654;10.326;2023-05-07T14:36:57;18.70;99.90
16674;DHT22;8450;52.654;10.326;2023-05-07T14:39:23;18.70;99.90
16674;DHT22;8450;52.654;10.326;2023-05-07T14:41:49;18.70;99.90
16674;DHT22;8450;52.654;10.326;2023-05-07T14:44:14;18.70;99.90
16674;DHT22;8450;52.654;10.326;2023-05-07T14:46:40;18.80;99.90
16674;DHT22;8450;52.654;10.326;2023-05-07T14:49:06;18.80;99.90
16674;DHT22;8450;52.654;10.326;2023-05-07T14:51:32;18.80;99.90
16674;DHT22;8450;52.654;10.326;2023-05-07T14:53:58;18.80;99.90
16674;DHT22;8450;52.654;10.326;2023-05-07T14:56:24;18.90;99.90
16674;DHT22;8450;52.654;10.326;2023-05-07T14:58:49;18.90;99.90
16674;DHT22;8450;52.654;10.326;2023-05-07T15:01:15;18.90;99.90
16674;DHT22;8450;52.654;10.326;2023-05-07T15:03:41;18.90;99.90
16674;DHT22;8450;52.654;10.326;2023-05-07T15:06:06;19.00;99.90
16674;DHT22;8450;52.654;10.326;2023-05-07T15:08:32;19.00;99.90
16674;DHT22;8450;52.654;10.326;2023-05-07T15:10:57;19.00;99.90
16674;DHT22;8450;52.654;10.326;2023-05-07T15:13:23;19.00;99.90
16674;DHT22;8450;52.654;10.326;2023-05-07T15:15:48;19.00;99.90
16674;DHT22;8450;52.654;10.326;2023-05-07T15:18:15;18.90;99.90
16674;DHT22;8450;52.654;10.326;2023-05-07T15:20:41;18.90;99.90
16674;DHT22;8450;52.654;10.326;2023-05-07T15:23:08;18.80;99.90
16674;DHT22;8450;52.654;10.326;2023-05-07T15:25:43;18.80;99.90
16674;DHT22;8450;52.654;10.326;2023-05-07T15:28:08;18.70;99.90
16674;DHT22;8450;52.654;10.326;2023-05-07T15:30:34;18.70;99.90
16674;DHT22;8450;52.654;10.326;2023-05-07T15:33:01;18.70;99.90
16674;DHT22;8450;52.654;10.326;2023-05-07T15:35:26;18.60;99.90
16674;DHT22;8450;52.654;10.326;2023-05-07T15:37:52;18.50;99.90
16674;DHT22;8450;52.654;10.326;2023-05-07T15:40:18;18.50;99.90
16674;DHT22;8450;52.654;10.326;2023-05-07T15:42:45;18.40;99.90
16674;DHT22;8450;52.654;10.326;2023-05-07T15:45:10;18.40;99.90
16674;DHT22;8450;52.654;10.326;2023-05-07T15:47:36;18.40;99.90
16674;DHT22;8450;52.654;10.326;2023-05-07T15:50:02;18.40;99.90
16674;DHT22;8450;52.654;10.326;2023-05-07T15:52:29;18.30;99.90
16674;DHT22;8450;52.654;10.326;2023-05-07T15:54:55;18.30;99.90
16674;DHT22;8450;52.654;10.326;2023-05-07T15:57:21;18.20;99.90
16674;DHT22;8450;52.654;10.326;2023-05-07T15:59:47;18.20;99.90
16674;DHT22;8450;52.654;10.326;2023-05-07T16:02:13;18.20;99.90
16674;DHT22;8450;52.654;10.326;2023-05-07T16:04:39;18.10;99.90
16674;DHT22;8450;52.654;10.326;2023-05-07T16:07:04;18.10;99.90
16674;DHT22;8450;52.654;10.326;2023-05-07T16:09:30;18.10;99.90
16674;DHT22;8450;52.654;10.326;2023-05-07T16:11:57;18.10;99.90
16674;DHT22;8450;52.654;10.326;2023-05-07T16:14:22;18.00;99.90
16674;DHT22;8450;52.654;10.326;2023-05-07T16:16:48;18.00;99.90
16674;DHT22;8450;52.654;10.326;2023-05-07T16:19:14;18.00;99.90
16674;DHT22;8450;52.654;10.326;2023-05-07T16:21:40;18.00;99.90
16674;DHT22;8450;52.654;10.326;2023-05-07T16:24:05;18.00;99.90
16674;DHT22;8450;52.654;10.326;2023-05-07T16:26:31;18.00;99.90
16674;DHT22;8450;52.654;10.326;2023-05-07T16:28:56;17.90;99.90
16674;DHT22;8450;52.654;10.326;2023-05-07T16:31:23;17.90;99.90
16674;DHT22;8450;52.654;10.326;2023-05-07T16:33:50;17.80;99.90
16674;DHT22;8450;52.654;10.326;2023-05-07T16:36:15;17.80;99.90
16674;DHT22;8450;52.654;10.326;2023-05-07T16:38:41;17.70;99.90
16674;DHT22;8450;52.654;10.326;2023-05-07T16:41:07;17.60;99.90
16674;DHT22;8450;52.654;10.326;2023-05-07T16:43:32;17.60;99.90
16674;DHT22;8450;52.654;10.326;2023-05-07T16:45:58;17.50;99.90
16674;DHT22;8450;52.654;10.326;2023-05-07T16:48:24;17.40;99.90
16674;DHT22;8450;52.654;10.326;2023-05-07T16:50:49;17.30;99.90
16674;DHT22;8450;52.654;10.326;2023-05-07T16:53:15;17.30;99.90
16674;DHT22;8450;52.654;10.326;2023-05-07T16:55:40;17.20;99.90
16674;DHT22;8450;52.654;10.326;2023-05-07T16:58:07;17.10;99.90
16674;DHT22;8450;52.654;10.326;2023-05-07T17:00:33;17.10;99.90
16674;DHT22;8450;52.654;10.326;2023-05-07T17:02:59;17.00;99.90
16674;DHT22;8450;52.654;10.326;2023-05-07T17:05:25;16.90;99.90
16674;DHT22;8450;52.654;10.326;2023-05-07T17:07:50;16.80;99.90
16674;DHT22;8450;52.654;10.326;2023-05-07T17:10:16;16.80;99.90
16674;DHT22;8450;52.654;10.326;2023-05-07T17:12:42;16.70;99.90
16674;DHT22;8450;52.654;10.326;2023-05-07T17:15:08;16.60;99.90
16674;DHT22;8450;52.654;10.326;2023-05-07T17:17:34;16.50;99.90
16674;DHT22;8450;52.654;10.326;2023-05-07T17:20:00;16.50;99.90
16674;DHT22;8450;52.654;10.326;2023-05-07T17:22:25;16.40;99.90
16674;DHT22;8450;52.654;10.326;2023-05-07T17:24:51;16.30;99.90
16674;DHT22;8450;52.654;10.326;2023-05-07T17:27:17;16.30;99.90
16674;DHT22;8450;52.654;10.326;2023-05-07T17:29:43;16.20;99.90
16674;DHT22;8450;52.654;10.326;2023-05-07T17:32:08;16.20;99.90
16674;DHT22;8450;52.654;10.326;2023-05-07T17:34:34;16.10;99.90
16674;DHT22;8450;52.654;10.326;2023-05-07T17:36:59;16.00;99.90
16674;DHT22;8450;52.654;10.326;2023-05-07T17:39:25;15.90;99.90
16674;DHT22;8450;52.654;10.326;2023-05-07T17:41:51;15.80;99.90
16674;DHT22;8450;52.654;10.326;2023-05-07T17:44:17;15.80;99.90
16674;DHT22;8450;52.654;10.326;2023-05-07T17:46:42;15.70;99.90
16674;DHT22;8450;52.654;10.326;2023-05-07T17:49:08;15.60;99.90
16674;DHT22;8450;52.654;10.326;2023-05-07T17:51:33;15.50;99.90
16674;DHT22;8450;52.654;10.326;2023-05-07T17:53:59;15.40;99.90
16674;DHT22;8450;52.654;10.326;2023-05-07T17:56:24;15.30;99.90
16674;DHT22;8450;52.654;10.326;2023-05-07T17:58:50;15.20;99.90
16674;DHT22;8450;52.654;10.326;2023-05-07T18:01:19;15.10;99.90
16674;DHT22;8450;52.654;10.326;2023-05-07T18:03:45;15.00;99.90
16674;DHT22;8450;52.654;10.326;2023-05-07T18:06:11;15.00;99.90
16674;DHT22;8450;52.654;10.326;2023-05-07T18:08:42;14.90;99.90
16674;DHT22;8450;52.654;10.326;2023-05-07T18:11:08;14.80;99.90
16674;DHT22;8450;52.654;10.326;2023-05-07T18:13:33;14.70;99.90
16674;DHT22;8450;52.654;10.326;2023-05-07T18:15:59;14.70;99.90
16674;DHT22;8450;52.654;10.326;2023-05-07T18:18:25;14.60;99.90
